sensor_id;sensor_type;location;lat;lon;timestamp;P1;durP1;ratioP1;P2;durP2;ratioP2
67564;SDS011;54393;53.556;49.216;2023-05-20T00:01:25;2.65;;;2.42;;
67564;SDS011;54393;53.556;49.216;2023-05-20T00:03:51;2.10;;;2.00;;
67564;SDS011;54393;53.556;49.216;2023-05-20T00:06:18;1.87;;;1.77;;
67564;SDS011;54393;53.556;49.216;2023-05-20T00:08:44;2.55;;;2.35;;
67564;SDS011;54393;53.556;49.216;2023-05-20T00:11:11;1.98;;;1.83;;
67564;SDS011;54393;53.556;49.216;2023-05-20T00:13:37;3.17;;;2.22;;
67564;SDS011;54393;53.556;49.216;2023-05-20T00:16:04;2.92;;;2.42;;
67564;SDS011;54393;53.556;49.216;2023-05-20T00:18:31;2.25;;;1.90;;
67564;SDS011;54393;53.556;49.216;2023-05-20T00:20:57;2.60;;;2.22;;
67564;SDS011;54393;53.556;49.216;2023-05-20T00:23:24;2.22;;;2.03;;
67564;SDS011;54393;53.556;49.216;2023-05-20T00:25:50;2.37;;;2.05;;
67564;SDS011;54393;53.556;49.216;2023-05-20T00:28:17;2.92;;;2.20;;
67564;SDS011;54393;53.556;49.216;2023-05-20T00:30:43;2.22;;;2.03;;
67564;SDS011;54393;53.556;49.216;2023-05-20T00:33:10;2.40;;;2.20;;
67564;SDS011;54393;53.556;49.216;2023-05-20T00:35:37;2.45;;;2.17;;
67564;SDS011;54393;53.556;49.216;2023-05-20T00:38:03;2.75;;;2.55;;
67564;SDS011;54393;53.556;49.216;2023-05-20T00:40:30;2.37;;;2.15;;
67564;SDS011;54393;53.556;49.216;2023-05-20T00:42:56;2.17;;;1.95;;
67564;SDS011;54393;53.556;49.216;2023-05-20T00:45:23;3.08;;;1.62;;
67564;SDS011;54393;53.556;49.216;2023-05-20T00:47:49;2.62;;;2.33;;
67564;SDS011;54393;53.556;49.216;2023-05-20T00:50:16;2.58;;;2.22;;
67564;SDS011;54393;53.556;49.216;2023-05-20T00:52:43;2.72;;;2.53;;
67564;SDS011;54393;53.556;49.216;2023-05-20T00:55:12;2.78;;;2.30;;
67564;SDS011;54393;53.556;49.216;2023-05-20T00:57:38;2.47;;;2.28;;
67564;SDS011;54393;53.556;49.216;2023-05-20T01:00:06;3.70;;;2.17;;
67564;SDS011;54393;53.556;49.216;2023-05-20T01:02:34;3.50;;;2.60;;
67564;SDS011;54393;53.556;49.216;2023-05-20T01:05:01;4.00;;;2.30;;
67564;SDS011;54393;53.556;49.216;2023-05-20T01:07:27;2.58;;;2.03;;
67564;SDS011;54393;53.556;49.216;2023-05-20T01:09:54;2.62;;;2.37;;
67564;SDS011;54393;53.556;49.216;2023-05-20T01:17:32;3.05;;;2.70;;
67564;SDS011;54393;53.556;49.216;2023-05-20T01:20:02;2.37;;;1.90;;
67564;SDS011;54393;53.556;49.216;2023-05-20T01:22:31;2.62;;;2.20;;
67564;SDS011;54393;53.556;49.216;2023-05-20T01:24:58;2.55;;;2.35;;
67564;SDS011;54393;53.556;49.216;2023-05-20T01:27:24;4.12;;;2.90;;
67564;SDS011;54393;53.556;49.216;2023-05-20T01:29:50;4.97;;;2.30;;
67564;SDS011;54393;53.556;49.216;2023-05-20T01:34:50;2.75;;;2.47;;
67564;SDS011;54393;53.556;49.216;2023-05-20T01:37:18;4.70;;;2.60;;
67564;SDS011;54393;53.556;49.216;2023-05-20T01:39:45;2.80;;;2.45;;
67564;SDS011;54393;53.556;49.216;2023-05-20T01:42:12;3.17;;;2.87;;
67564;SDS011;54393;53.556;49.216;2023-05-20T01:44:38;3.30;;;2.45;;
67564;SDS011;54393;53.556;49.216;2023-05-20T01:47:05;2.95;;;2.47;;
67564;SDS011;54393;53.556;49.216;2023-05-20T01:49:32;2.87;;;2.53;;
67564;SDS011;54393;53.556;49.216;2023-05-20T01:51:58;2.65;;;2.12;;
67564;SDS011;54393;53.556;49.216;2023-05-20T01:54:25;3.30;;;2.47;;
67564;SDS011;54393;53.556;49.216;2023-05-20T01:56:51;3.25;;;2.53;;
67564;SDS011;54393;53.556;49.216;2023-05-20T01:59:18;2.83;;;2.62;;
67564;SDS011;54393;53.556;49.216;2023-05-20T02:01:45;2.55;;;2.30;;
67564;SDS011;54393;53.556;49.216;2023-05-20T02:04:11;2.80;;;2.60;;
67564;SDS011;54393;53.556;49.216;2023-05-20T02:06:38;5.28;;;3.05;;
67564;SDS011;54393;53.556;49.216;2023-05-20T02:09:04;2.70;;;2.37;;
67564;SDS011;54393;53.556;49.216;2023-05-20T02:11:31;3.45;;;2.20;;
67564;SDS011;54393;53.556;49.216;2023-05-20T02:13:58;3.08;;;2.78;;
67564;SDS011;54393;53.556;49.216;2023-05-20T02:16:24;2.95;;;2.40;;
67564;SDS011;54393;53.556;49.216;2023-05-20T02:18:51;3.08;;;2.62;;
67564;SDS011;54393;53.556;49.216;2023-05-20T02:21:17;4.00;;;2.67;;
67564;SDS011;54393;53.556;49.216;2023-05-20T02:23:44;2.60;;;2.40;;
67564;SDS011;54393;53.556;49.216;2023-05-20T02:26:10;3.33;;;2.58;;
67564;SDS011;54393;53.556;49.216;2023-05-20T02:28:37;3.33;;;2.62;;
67564;SDS011;54393;53.556;49.216;2023-05-20T02:31:07;4.97;;;2.80;;
67564;SDS011;54393;53.556;49.216;2023-05-20T02:33:34;2.78;;;2.50;;
67564;SDS011;54393;53.556;49.216;2023-05-20T02:36:00;2.87;;;2.47;;
67564;SDS011;54393;53.556;49.216;2023-05-20T02:38:27;2.75;;;2.55;;
67564;SDS011;54393;53.556;49.216;2023-05-20T02:40:55;3.28;;;2.87;;
67564;SDS011;54393;53.556;49.216;2023-05-20T02:43:24;3.25;;;2.35;;
67564;SDS011;54393;53.556;49.216;2023-05-20T02:45:50;3.00;;;2.78;;
67564;SDS011;54393;53.556;49.216;2023-05-20T02:48:17;3.37;;;2.67;;
67564;SDS011;54393;53.556;49.216;2023-05-20T02:50:44;2.75;;;2.47;;
67564;SDS011;54393;53.556;49.216;2023-05-20T02:53:11;3.70;;;2.53;;
67564;SDS011;54393;53.556;49.216;2023-05-20T02:55:38;2.30;;;2.17;;
67564;SDS011;54393;53.556;49.216;2023-05-20T02:58:05;3.55;;;2.62;;
67564;SDS011;54393;53.556;49.216;2023-05-20T03:00:32;3.08;;;2.60;;
67564;SDS011;54393;53.556;49.216;2023-05-20T03:03:05;2.78;;;2.58;;
67564;SDS011;54393;53.556;49.216;2023-05-20T03:05:34;3.47;;;3.15;;
67564;SDS011;54393;53.556;49.216;2023-05-20T03:08:07;2.80;;;2.60;;
67564;SDS011;54393;53.556;49.216;2023-05-20T03:10:35;3.08;;;2.60;;
67564;SDS011;54393;53.556;49.216;2023-05-20T03:13:03;4.18;;;2.78;;
67564;SDS011;54393;53.556;49.216;2023-05-20T03:15:33;3.45;;;2.80;;
67564;SDS011;54393;53.556;49.216;2023-05-20T03:18:00;3.60;;;2.60;;
67564;SDS011;54393;53.556;49.216;2023-05-20T03:20:26;3.10;;;2.90;;
67564;SDS011;54393;53.556;49.216;2023-05-20T03:22:54;3.22;;;2.50;;
67564;SDS011;54393;53.556;49.216;2023-05-20T03:25:21;3.55;;;2.78;;
67564;SDS011;54393;53.556;49.216;2023-05-20T03:27:48;2.75;;;2.50;;
67564;SDS011;54393;53.556;49.216;2023-05-20T03:30:15;5.15;;;2.95;;
67564;SDS011;54393;53.556;49.216;2023-05-20T03:32:41;2.90;;;2.70;;
67564;SDS011;54393;53.556;49.216;2023-05-20T03:35:08;3.17;;;2.85;;
67564;SDS011;54393;53.556;49.216;2023-05-20T03:37:35;2.87;;;2.67;;
67564;SDS011;54393;53.556;49.216;2023-05-20T03:40:01;5.15;;;2.53;;
67564;SDS011;54393;53.556;49.216;2023-05-20T03:42:34;4.45;;;2.85;;
67564;SDS011;54393;53.556;49.216;2023-05-20T03:45:01;3.12;;;2.40;;
67564;SDS011;54393;53.556;49.216;2023-05-20T03:47:27;3.00;;;2.67;;
67564;SDS011;54393;53.556;49.216;2023-05-20T03:49:54;4.15;;;3.20;;
67564;SDS011;54393;53.556;49.216;2023-05-20T03:52:20;4.05;;;2.83;;
67564;SDS011;54393;53.556;49.216;2023-05-20T03:54:47;3.33;;;2.40;;
67564;SDS011;54393;53.556;49.216;2023-05-20T03:57:13;3.67;;;2.83;;
67564;SDS011;54393;53.556;49.216;2023-05-20T03:59:40;4.20;;;2.87;;
67564;SDS011;54393;53.556;49.216;2023-05-20T04:02:07;3.03;;;2.28;;
67564;SDS011;54393;53.556;49.216;2023-05-20T04:04:33;3.03;;;2.78;;
67564;SDS011;54393;53.556;49.216;2023-05-20T04:07:00;3.50;;;2.78;;
67564;SDS011;54393;53.556;49.216;2023-05-20T04:09:31;2.70;;;2.45;;
67564;SDS011;54393;53.556;49.216;2023-05-20T04:11:58;3.05;;;2.35;;
67564;SDS011;54393;53.556;49.216;2023-05-20T04:14:24;4.68;;;2.35;;
67564;SDS011;54393;53.556;49.216;2023-05-20T04:16:51;3.22;;;2.60;;
67564;SDS011;54393;53.556;49.216;2023-05-20T04:19:18;4.50;;;2.42;;
67564;SDS011;54393;53.556;49.216;2023-05-20T04:21:44;3.90;;;2.67;;
67564;SDS011;54393;53.556;49.216;2023-05-20T04:24:11;3.33;;;2.65;;
67564;SDS011;54393;53.556;49.216;2023-05-20T04:26:37;3.05;;;2.70;;
67564;SDS011;54393;53.556;49.216;2023-05-20T04:29:04;3.10;;;2.35;;
67564;SDS011;54393;53.556;49.216;2023-05-20T04:31:30;3.85;;;3.00;;
67564;SDS011;54393;53.556;49.216;2023-05-20T04:33:57;2.47;;;2.22;;
67564;SDS011;54393;53.556;49.216;2023-05-20T04:36:23;3.65;;;2.28;;
67564;SDS011;54393;53.556;49.216;2023-05-20T04:38:53;3.15;;;2.85;;
67564;SDS011;54393;53.556;49.216;2023-05-20T04:41:20;2.55;;;2.28;;
67564;SDS011;54393;53.556;49.216;2023-05-20T04:43:46;3.50;;;2.72;;
67564;SDS011;54393;53.556;49.216;2023-05-20T04:46:14;2.95;;;2.70;;
67564;SDS011;54393;53.556;49.216;2023-05-20T04:48:40;3.00;;;2.75;;
67564;SDS011;54393;53.556;49.216;2023-05-20T04:51:12;3.42;;;2.75;;
67564;SDS011;54393;53.556;49.216;2023-05-20T04:53:38;3.67;;;2.70;;
67564;SDS011;54393;53.556;49.216;2023-05-20T04:56:05;3.08;;;2.58;;
67564;SDS011;54393;53.556;49.216;2023-05-20T04:58:32;4.35;;;2.92;;
67564;SDS011;54393;53.556;49.216;2023-05-20T05:00:58;2.60;;;2.25;;
67564;SDS011;54393;53.556;49.216;2023-05-20T05:03:25;2.90;;;2.42;;
67564;SDS011;54393;53.556;49.216;2023-05-20T05:05:54;3.30;;;2.72;;
67564;SDS011;54393;53.556;49.216;2023-05-20T05:08:21;3.30;;;2.95;;
67564;SDS011;54393;53.556;49.216;2023-05-20T05:10:48;3.20;;;2.50;;
67564;SDS011;54393;53.556;49.216;2023-05-20T05:13:15;2.97;;;2.67;;
67564;SDS011;54393;53.556;49.216;2023-05-20T05:15:41;4.22;;;2.78;;
67564;SDS011;54393;53.556;49.216;2023-05-20T05:18:08;3.53;;;2.53;;
67564;SDS011;54393;53.556;49.216;2023-05-20T05:20:34;2.90;;;2.50;;
67564;SDS011;54393;53.556;49.216;2023-05-20T05:23:01;2.90;;;2.67;;
67564;SDS011;54393;53.556;49.216;2023-05-20T05:25:27;3.70;;;2.95;;
67564;SDS011;54393;53.556;49.216;2023-05-20T05:27:54;3.00;;;2.80;;
67564;SDS011;54393;53.556;49.216;2023-05-20T05:30:20;4.18;;;2.85;;
67564;SDS011;54393;53.556;49.216;2023-05-20T05:32:47;2.35;;;2.15;;
67564;SDS011;54393;53.556;49.216;2023-05-20T05:35:13;2.70;;;2.50;;
67564;SDS011;54393;53.556;49.216;2023-05-20T05:37:40;3.70;;;2.72;;
67564;SDS011;54393;53.556;49.216;2023-05-20T05:40:06;2.58;;;2.35;;
67564;SDS011;54393;53.556;49.216;2023-05-20T05:42:33;2.97;;;2.67;;
67564;SDS011;54393;53.556;49.216;2023-05-20T05:45:00;2.95;;;2.62;;
67564;SDS011;54393;53.556;49.216;2023-05-20T05:47:26;2.85;;;2.50;;
67564;SDS011;54393;53.556;49.216;2023-05-20T05:49:56;2.75;;;2.55;;
67564;SDS011;54393;53.556;49.216;2023-05-20T05:52:24;3.03;;;2.67;;
67564;SDS011;54393;53.556;49.216;2023-05-20T05:54:51;3.10;;;2.80;;
67564;SDS011;54393;53.556;49.216;2023-05-20T05:57:18;2.75;;;2.55;;
67564;SDS011;54393;53.556;49.216;2023-05-20T05:59:44;2.97;;;2.60;;
67564;SDS011;54393;53.556;49.216;2023-05-20T06:02:11;3.20;;;2.58;;
67564;SDS011;54393;53.556;49.216;2023-05-20T06:04:38;3.40;;;2.20;;
67564;SDS011;54393;53.556;49.216;2023-05-20T06:07:05;3.80;;;2.75;;
67564;SDS011;54393;53.556;49.216;2023-05-20T06:09:32;4.50;;;2.70;;
67564;SDS011;54393;53.556;49.216;2023-05-20T06:11:58;3.17;;;2.83;;
67564;SDS011;54393;53.556;49.216;2023-05-20T06:14:25;3.22;;;2.83;;
67564;SDS011;54393;53.556;49.216;2023-05-20T06:16:51;2.97;;;2.67;;
67564;SDS011;54393;53.556;49.216;2023-05-20T06:19:18;3.33;;;2.55;;
67564;SDS011;54393;53.556;49.216;2023-05-20T06:21:44;2.78;;;2.40;;
67564;SDS011;54393;53.556;49.216;2023-05-20T06:24:11;4.28;;;2.97;;
67564;SDS011;54393;53.556;49.216;2023-05-20T06:26:37;3.87;;;2.55;;
67564;SDS011;54393;53.556;49.216;2023-05-20T06:29:04;2.92;;;2.30;;
67564;SDS011;54393;53.556;49.216;2023-05-20T06:31:30;3.95;;;2.70;;
67564;SDS011;54393;53.556;49.216;2023-05-20T06:33:57;4.25;;;2.70;;
67564;SDS011;54393;53.556;49.216;2023-05-20T06:36:24;2.80;;;2.60;;
67564;SDS011;54393;53.556;49.216;2023-05-20T06:38:51;3.55;;;2.70;;
67564;SDS011;54393;53.556;49.216;2023-05-20T06:41:17;4.35;;;3.30;;
67564;SDS011;54393;53.556;49.216;2023-05-20T06:43:46;2.70;;;2.50;;
67564;SDS011;54393;53.556;49.216;2023-05-20T06:46:13;2.85;;;2.42;;
67564;SDS011;54393;53.556;49.216;2023-05-20T06:48:39;4.28;;;2.80;;
67564;SDS011;54393;53.556;49.216;2023-05-20T06:51:06;2.70;;;2.50;;
67564;SDS011;54393;53.556;49.216;2023-05-20T06:53:36;2.92;;;2.72;;
67564;SDS011;54393;53.556;49.216;2023-05-20T06:56:02;3.00;;;2.55;;
67564;SDS011;54393;53.556;49.216;2023-05-20T06:58:29;3.75;;;2.72;;
67564;SDS011;54393;53.556;49.216;2023-05-20T07:00:55;2.72;;;2.53;;
67564;SDS011;54393;53.556;49.216;2023-05-20T07:03:22;3.28;;;2.60;;
67564;SDS011;54393;53.556;49.216;2023-05-20T07:05:49;2.92;;;2.47;;
67564;SDS011;54393;53.556;49.216;2023-05-20T07:08:16;3.35;;;2.60;;
67564;SDS011;54393;53.556;49.216;2023-05-20T07:10:43;3.70;;;2.58;;
67564;SDS011;54393;53.556;49.216;2023-05-20T07:13:10;4.85;;;2.92;;
67564;SDS011;54393;53.556;49.216;2023-05-20T07:15:37;3.00;;;2.75;;
67564;SDS011;54393;53.556;49.216;2023-05-20T07:18:03;2.90;;;2.58;;
67564;SDS011;54393;53.556;49.216;2023-05-20T07:20:30;3.00;;;2.30;;
67564;SDS011;54393;53.556;49.216;2023-05-20T07:22:57;2.87;;;2.67;;
67564;SDS011;54393;53.556;49.216;2023-05-20T07:25:23;2.87;;;2.58;;
67564;SDS011;54393;53.556;49.216;2023-05-20T07:27:50;3.25;;;2.95;;
67564;SDS011;54393;53.556;49.216;2023-05-20T07:30:16;2.90;;;2.58;;
67564;SDS011;54393;53.556;49.216;2023-05-20T07:32:43;2.50;;;2.30;;
67564;SDS011;54393;53.556;49.216;2023-05-20T07:35:09;2.62;;;2.25;;
67564;SDS011;54393;53.556;49.216;2023-05-20T07:37:36;3.28;;;2.47;;
67564;SDS011;54393;53.556;49.216;2023-05-20T07:40:03;4.22;;;2.65;;
67564;SDS011;54393;53.556;49.216;2023-05-20T07:42:30;3.35;;;2.60;;
67564;SDS011;54393;53.556;49.216;2023-05-20T07:44:56;3.35;;;2.47;;
67564;SDS011;54393;53.556;49.216;2023-05-20T07:47:23;3.45;;;2.65;;
67564;SDS011;54393;53.556;49.216;2023-05-20T07:49:49;3.50;;;2.60;;
67564;SDS011;54393;53.556;49.216;2023-05-20T07:52:16;2.87;;;2.53;;
67564;SDS011;54393;53.556;49.216;2023-05-20T07:54:42;2.95;;;2.60;;
67564;SDS011;54393;53.556;49.216;2023-05-20T07:57:09;2.58;;;2.37;;
67564;SDS011;54393;53.556;49.216;2023-05-20T07:59:35;3.12;;;2.30;;
67564;SDS011;54393;53.556;49.216;2023-05-20T08:02:02;3.03;;;2.35;;
67564;SDS011;54393;53.556;49.216;2023-05-20T08:04:28;3.03;;;2.70;;
67564;SDS011;54393;53.556;49.216;2023-05-20T08:06:55;2.70;;;2.50;;
67564;SDS011;54393;53.556;49.216;2023-05-20T08:09:21;2.28;;;2.08;;
67564;SDS011;54393;53.556;49.216;2023-05-20T08:11:48;2.85;;;2.58;;
67564;SDS011;54393;53.556;49.216;2023-05-20T08:14:14;2.80;;;2.60;;
67564;SDS011;54393;53.556;49.216;2023-05-20T08:16:41;2.33;;;2.03;;
67564;SDS011;54393;53.556;49.216;2023-05-20T08:19:08;3.20;;;2.70;;
67564;SDS011;54393;53.556;49.216;2023-05-20T08:21:34;2.45;;;2.25;;
67564;SDS011;54393;53.556;49.216;2023-05-20T08:24:01;2.92;;;2.47;;
67564;SDS011;54393;53.556;49.216;2023-05-20T08:26:28;2.62;;;2.30;;
67564;SDS011;54393;53.556;49.216;2023-05-20T08:28:54;2.58;;;2.37;;
67564;SDS011;54393;53.556;49.216;2023-05-20T08:31:21;2.42;;;2.20;;
67564;SDS011;54393;53.556;49.216;2023-05-20T08:33:48;2.70;;;2.45;;
67564;SDS011;54393;53.556;49.216;2023-05-20T08:36:14;2.50;;;2.30;;
67564;SDS011;54393;53.556;49.216;2023-05-20T08:38:41;3.12;;;2.53;;
67564;SDS011;54393;53.556;49.216;2023-05-20T08:41:07;2.97;;;2.58;;
67564;SDS011;54393;53.556;49.216;2023-05-20T08:43:34;3.28;;;2.17;;
67564;SDS011;54393;53.556;49.216;2023-05-20T08:46:00;2.37;;;2.17;;
67564;SDS011;54393;53.556;49.216;2023-05-20T08:48:30;2.50;;;2.30;;
67564;SDS011;54393;53.556;49.216;2023-05-20T08:50:57;2.75;;;2.55;;
67564;SDS011;54393;53.556;49.216;2023-05-20T08:53:24;2.53;;;2.33;;
67564;SDS011;54393;53.556;49.216;2023-05-20T08:55:52;2.40;;;2.20;;
67564;SDS011;54393;53.556;49.216;2023-05-20T08:58:22;2.80;;;2.50;;
67564;SDS011;54393;53.556;49.216;2023-05-20T09:00:49;2.35;;;2.15;;
67564;SDS011;54393;53.556;49.216;2023-05-20T09:03:17;2.67;;;2.47;;
67564;SDS011;54393;53.556;49.216;2023-05-20T09:05:48;2.97;;;2.40;;
67564;SDS011;54393;53.556;49.216;2023-05-20T09:08:14;2.58;;;2.20;;
67564;SDS011;54393;53.556;49.216;2023-05-20T09:10:41;2.42;;;2.22;;
67564;SDS011;54393;53.556;49.216;2023-05-20T09:13:08;2.92;;;2.05;;
67564;SDS011;54393;53.556;49.216;2023-05-20T09:15:35;2.33;;;2.12;;
67564;SDS011;54393;53.556;49.216;2023-05-20T09:18:05;2.12;;;1.92;;
67564;SDS011;54393;53.556;49.216;2023-05-20T09:20:36;2.20;;;2.00;;
67564;SDS011;54393;53.556;49.216;2023-05-20T09:23:19;3.10;;;2.20;;
67564;SDS011;54393;53.556;49.216;2023-05-20T09:25:50;2.75;;;2.35;;
67564;SDS011;54393;53.556;49.216;2023-05-20T09:28:23;2.80;;;2.05;;
67564;SDS011;54393;53.556;49.216;2023-05-20T09:30:49;2.85;;;2.30;;
67564;SDS011;54393;53.556;49.216;2023-05-20T09:33:21;2.53;;;2.05;;
67564;SDS011;54393;53.556;49.216;2023-05-20T09:36:02;2.80;;;2.28;;
67564;SDS011;54393;53.556;49.216;2023-05-20T09:38:30;2.50;;;2.30;;
67564;SDS011;54393;53.556;49.216;2023-05-20T09:41:05;3.45;;;1.92;;
67564;SDS011;54393;53.556;49.216;2023-05-20T09:43:37;2.53;;;2.22;;
67564;SDS011;54393;53.556;49.216;2023-05-20T09:46:05;3.22;;;2.30;;
67564;SDS011;54393;53.556;49.216;2023-05-20T09:48:35;2.40;;;2.17;;
67564;SDS011;54393;53.556;49.216;2023-05-20T09:51:02;2.60;;;2.00;;
67564;SDS011;54393;53.556;49.216;2023-05-20T09:53:30;2.45;;;2.25;;
67564;SDS011;54393;53.556;49.216;2023-05-20T09:55:57;2.58;;;2.37;;
67564;SDS011;54393;53.556;49.216;2023-05-20T09:58:24;2.42;;;2.22;;
67564;SDS011;54393;53.556;49.216;2023-05-20T10:00:51;2.55;;;2.20;;
67564;SDS011;54393;53.556;49.216;2023-05-20T10:03:18;2.37;;;2.15;;
67564;SDS011;54393;53.556;49.216;2023-05-20T10:05:48;3.45;;;2.50;;
67564;SDS011;54393;53.556;49.216;2023-05-20T10:16:17;2.03;;;1.92;;
67564;SDS011;54393;53.556;49.216;2023-05-20T10:22:06;2.33;;;2.10;;
67564;SDS011;54393;53.556;49.216;2023-05-20T10:24:36;2.28;;;2.08;;
67564;SDS011;54393;53.556;49.216;2023-05-20T10:27:12;2.25;;;2.05;;
67564;SDS011;54393;53.556;49.216;2023-05-20T10:29:43;3.87;;;2.58;;
67564;SDS011;54393;53.556;49.216;2023-05-20T10:32:11;2.12;;;1.92;;
67564;SDS011;54393;53.556;49.216;2023-05-20T10:34:48;2.17;;;2.08;;
67564;SDS011;54393;53.556;49.216;2023-05-20T10:37:31;2.50;;;1.85;;
67564;SDS011;54393;53.556;49.216;2023-05-20T10:40:02;2.53;;;2.12;;
67564;SDS011;54393;53.556;49.216;2023-05-20T10:42:32;2.83;;;2.22;;
67564;SDS011;54393;53.556;49.216;2023-05-20T10:44:59;2.22;;;2.03;;
67564;SDS011;54393;53.556;49.216;2023-05-20T10:47:25;2.53;;;2.33;;
67564;SDS011;54393;53.556;49.216;2023-05-20T10:49:52;2.55;;;2.08;;
67564;SDS011;54393;53.556;49.216;2023-05-20T10:52:18;2.05;;;1.75;;
67564;SDS011;54393;53.556;49.216;2023-05-20T10:54:46;2.67;;;2.12;;
67564;SDS011;54393;53.556;49.216;2023-05-20T10:57:19;2.08;;;1.87;;
67564;SDS011;54393;53.556;49.216;2023-05-20T10:59:46;2.35;;;2.03;;
67564;SDS011;54393;53.556;49.216;2023-05-20T11:02:14;2.33;;;2.12;;
67564;SDS011;54393;53.556;49.216;2023-05-20T11:04:44;2.62;;;2.28;;
67564;SDS011;54393;53.556;49.216;2023-05-20T11:07:11;2.33;;;2.12;;
67564;SDS011;54393;53.556;49.216;2023-05-20T11:09:48;1.80;;;1.70;;
67564;SDS011;54393;53.556;49.216;2023-05-20T11:12:15;2.33;;;2.05;;
67564;SDS011;54393;53.556;49.216;2023-05-20T11:14:41;2.22;;;2.03;;
67564;SDS011;54393;53.556;49.216;2023-05-20T11:17:08;3.15;;;2.10;;
67564;SDS011;54393;53.556;49.216;2023-05-20T11:19:36;2.08;;;1.92;;
67564;SDS011;54393;53.556;49.216;2023-05-20T11:22:02;2.30;;;2.10;;
67564;SDS011;54393;53.556;49.216;2023-05-20T11:24:31;2.60;;;2.40;;
67564;SDS011;54393;53.556;49.216;2023-05-20T11:26:59;2.00;;;1.80;;
67564;SDS011;54393;53.556;49.216;2023-05-20T11:29:26;2.65;;;2.45;;
67564;SDS011;54393;53.556;49.216;2023-05-20T11:31:56;2.00;;;1.90;;
67564;SDS011;54393;53.556;49.216;2023-05-20T11:34:23;2.17;;;1.90;;
67564;SDS011;54393;53.556;49.216;2023-05-20T11:36:56;2.42;;;1.90;;
67564;SDS011;54393;53.556;49.216;2023-05-20T11:39:23;2.20;;;2.00;;
67564;SDS011;54393;53.556;49.216;2023-05-20T11:41:53;2.33;;;2.10;;
67564;SDS011;54393;53.556;49.216;2023-05-20T11:44:19;2.60;;;2.40;;
67564;SDS011;54393;53.556;49.216;2023-05-20T11:46:46;2.22;;;2.03;;
67564;SDS011;54393;53.556;49.216;2023-05-20T11:49:13;3.12;;;2.42;;
67564;SDS011;54393;53.556;49.216;2023-05-20T11:51:40;2.85;;;2.00;;
67564;SDS011;54393;53.556;49.216;2023-05-20T11:54:09;1.98;;;1.87;;
67564;SDS011;54393;53.556;49.216;2023-05-20T11:56:46;2.22;;;2.10;;
67564;SDS011;54393;53.556;49.216;2023-05-20T11:59:13;3.17;;;2.12;;
67564;SDS011;54393;53.556;49.216;2023-05-20T12:01:39;2.20;;;2.00;;
67564;SDS011;54393;53.556;49.216;2023-05-20T12:04:07;1.95;;;1.80;;
67564;SDS011;54393;53.556;49.216;2023-05-20T12:06:34;2.03;;;1.92;;
67564;SDS011;54393;53.556;49.216;2023-05-20T12:09:02;2.78;;;1.95;;
67564;SDS011;54393;53.556;49.216;2023-05-20T12:11:38;2.33;;;2.10;;
67564;SDS011;54393;53.556;49.216;2023-05-20T12:14:05;1.90;;;1.77;;
67564;SDS011;54393;53.556;49.216;2023-05-20T12:16:33;2.17;;;2.00;;
67564;SDS011;54393;53.556;49.216;2023-05-20T12:18:59;2.00;;;1.90;;
67564;SDS011;54393;53.556;49.216;2023-05-20T12:21:29;2.05;;;1.95;;
67564;SDS011;54393;53.556;49.216;2023-05-20T12:23:57;2.10;;;1.70;;
67564;SDS011;54393;53.556;49.216;2023-05-20T12:26:27;2.03;;;1.83;;
67564;SDS011;54393;53.556;49.216;2023-05-20T12:28:54;2.30;;;2.10;;
67564;SDS011;54393;53.556;49.216;2023-05-20T12:31:20;4.03;;;2.03;;
67564;SDS011;54393;53.556;49.216;2023-05-20T12:33:47;2.28;;;2.08;;
67564;SDS011;54393;53.556;49.216;2023-05-20T12:36:13;3.35;;;2.40;;
67564;SDS011;54393;53.556;49.216;2023-05-20T12:38:40;1.92;;;1.80;;
67564;SDS011;54393;53.556;49.216;2023-05-20T12:41:07;1.87;;;1.73;;
67564;SDS011;54393;53.556;49.216;2023-05-20T12:43:34;2.15;;;1.95;;
67564;SDS011;54393;53.556;49.216;2023-05-20T12:46:01;1.62;;;1.48;;
67564;SDS011;54393;53.556;49.216;2023-05-20T12:48:28;3.05;;;2.20;;
67564;SDS011;54393;53.556;49.216;2023-05-20T12:50:54;2.00;;;1.90;;
67564;SDS011;54393;53.556;49.216;2023-05-20T12:53:20;2.58;;;2.00;;
67564;SDS011;54393;53.556;49.216;2023-05-20T12:55:47;1.70;;;1.60;;
67564;SDS011;54393;53.556;49.216;2023-05-20T12:58:14;2.15;;;1.95;;
67564;SDS011;54393;53.556;49.216;2023-05-20T13:00:40;1.95;;;1.83;;
67564;SDS011;54393;53.556;49.216;2023-05-20T13:03:07;2.40;;;2.08;;
67564;SDS011;54393;53.556;49.216;2023-05-20T13:05:33;1.80;;;1.70;;
67564;SDS011;54393;53.556;49.216;2023-05-20T13:08:00;1.77;;;1.67;;
67564;SDS011;54393;53.556;49.216;2023-05-20T13:10:26;1.70;;;1.60;;
67564;SDS011;54393;53.556;49.216;2023-05-20T13:12:53;1.90;;;1.80;;
67564;SDS011;54393;53.556;49.216;2023-05-20T13:15:20;1.52;;;1.42;;
67564;SDS011;54393;53.556;49.216;2023-05-20T13:17:47;2.42;;;2.10;;
67564;SDS011;54393;53.556;49.216;2023-05-20T13:20:13;1.62;;;1.52;;
67564;SDS011;54393;53.556;49.216;2023-05-20T13:22:40;2.20;;;2.00;;
67564;SDS011;54393;53.556;49.216;2023-05-20T13:25:07;2.20;;;2.00;;
67564;SDS011;54393;53.556;49.216;2023-05-20T13:27:37;2.65;;;1.92;;
67564;SDS011;54393;53.556;49.216;2023-05-20T13:30:03;1.62;;;1.52;;
67564;SDS011;54393;53.556;49.216;2023-05-20T13:32:31;2.30;;;1.65;;
67564;SDS011;54393;53.556;49.216;2023-05-20T13:34:57;3.10;;;1.83;;
67564;SDS011;54393;53.556;49.216;2023-05-20T13:37:24;2.33;;;1.90;;
67564;SDS011;54393;53.556;49.216;2023-05-20T13:39:55;1.85;;;1.60;;
67564;SDS011;54393;53.556;49.216;2023-05-20T13:42:22;1.70;;;1.60;;
67564;SDS011;54393;53.556;49.216;2023-05-20T13:44:50;2.22;;;1.90;;
67564;SDS011;54393;53.556;49.216;2023-05-20T13:47:17;1.70;;;1.60;;
67564;SDS011;54393;53.556;49.216;2023-05-20T13:49:47;2.25;;;2.05;;
67564;SDS011;54393;53.556;49.216;2023-05-20T13:52:19;1.87;;;1.73;;
67564;SDS011;54393;53.556;49.216;2023-05-20T13:54:49;2.47;;;2.28;;
67564;SDS011;54393;53.556;49.216;2023-05-20T13:57:15;2.08;;;1.92;;
67564;SDS011;54393;53.556;49.216;2023-05-20T13:59:42;2.42;;;1.67;;
67564;SDS011;54393;53.556;49.216;2023-05-20T14:02:08;3.28;;;2.03;;
67564;SDS011;54393;53.556;49.216;2023-05-20T14:04:35;2.15;;;1.95;;
67564;SDS011;54393;53.556;49.216;2023-05-20T14:07:05;2.20;;;2.00;;
67564;SDS011;54393;53.556;49.216;2023-05-20T14:09:31;1.90;;;1.77;;
67564;SDS011;54393;53.556;49.216;2023-05-20T14:12:01;3.42;;;1.90;;
67564;SDS011;54393;53.556;49.216;2023-05-20T14:14:27;1.70;;;1.60;;
67564;SDS011;54393;53.556;49.216;2023-05-20T14:16:54;1.80;;;1.70;;
67564;SDS011;54393;53.556;49.216;2023-05-20T14:19:20;3.62;;;2.10;;
67564;SDS011;54393;53.556;49.216;2023-05-20T14:21:47;3.08;;;1.70;;
67564;SDS011;54393;53.556;49.216;2023-05-20T14:24:14;1.95;;;1.70;;
67564;SDS011;54393;53.556;49.216;2023-05-20T14:26:40;1.52;;;1.42;;
67564;SDS011;54393;53.556;49.216;2023-05-20T14:29:07;1.67;;;1.58;;
67564;SDS011;54393;53.556;49.216;2023-05-20T14:31:34;1.70;;;1.60;;
67564;SDS011;54393;53.556;49.216;2023-05-20T14:34:02;1.80;;;1.70;;
67564;SDS011;54393;53.556;49.216;2023-05-20T14:36:29;1.65;;;1.55;;
67564;SDS011;54393;53.556;49.216;2023-05-20T14:38:56;1.70;;;1.60;;
67564;SDS011;54393;53.556;49.216;2023-05-20T14:41:22;1.90;;;1.80;;
67564;SDS011;54393;53.556;49.216;2023-05-20T14:43:49;1.45;;;1.37;;
67564;SDS011;54393;53.556;49.216;2023-05-20T14:46:15;1.37;;;1.27;;
67564;SDS011;54393;53.556;49.216;2023-05-20T14:48:42;2.00;;;1.80;;
67564;SDS011;54393;53.556;49.216;2023-05-20T14:51:08;1.80;;;1.70;;
67564;SDS011;54393;53.556;49.216;2023-05-20T14:53:35;2.20;;;1.60;;